Time,TemperatureF,DewpointF,PressureIn,WindDirection,WindDirectionDegrees,WindSpeedMPH,WindSpeedGustMPH,Humidity,HourlyPrecipIn,Conditions,Clouds,dailyrainin,SoftwareType,DateUTC
2013-01-08 00:00:00,19.3,17.1,30.39,WNW,303,0.0,0.0,91,0.00,,---,0.00,VWS V13.01,2013-01-08 05:00:00,
2013-01-08 00:01:00,19.2,17.0,30.39,WNW,303,0.0,0.0,91,0.00,,---,0.00,VWS V13.01,2013-01-08 05:01:00,
2013-01-08 00:04:00,19.2,17.0,30.38,WNW,303,0.0,0.0,91,0.00,,---,0.00,VWS V13.01,2013-01-08 05:04:00,
2013-01-08 00:09:00,19.3,17.4,30.38,WNW,303,0.0,0.0,92,0.00,,---,0.00,VWS V13.01,2013-01-08 05:09:00,
2013-01-08 00:14:00,18.5,16.3,30.38,WNW,303,0.0,0.0,91,0.00,,---,0.00,VWS V13.01,2013-01-08 05:14:00,
2013-01-08 00:19:00,17.5,15.3,30.38,WNW,303,0.0,0.0,91,0.00,,---,0.00,VWS V13.01,2013-01-08 05:19:00,
2013-01-08 00:25:00,16.9,14.7,30.38,WNW,303,0.0,1.0,91,0.00,,---,0.00,VWS V13.01,2013-01-08 05:25:00,
2013-01-08 00:30:00,17.9,16.0,30.38,WNW,303,0.0,1.0,92,0.00,,---,0.00,VWS V13.01,2013-01-08 05:30:00,
2013-01-08 00:35:00,18.0,16.1,30.38,WNW,303,0.0,0.0,92,0.00,,---,0.00,VWS V13.01,2013-01-08 05:35:00,
2013-01-08 00:40:00,17.5,15.6,30.39,WNW,303,0.0,0.0,92,0.00,,---,0.00,VWS V13.01,2013-01-08 05:40:00,
2013-01-08 00:45:00,16.7,14.8,30.38,WNW,303,0.0,0.0,92,0.00,,---,0.00,VWS V13.01,2013-01-08 05:45:00,
2013-01-08 00:50:00,16.4,14.5,30.38,WNW,303,0.0,0.0,92,0.00,,---,0.00,VWS V13.01,2013-01-08 05:50:00,
2013-01-08 00:55:00,16.1,14.2,30.38,WNW,303,0.0,0.0,92,0.00,,---,0.00,VWS V13.01,2013-01-08 05:55:00,
2013-01-08 01:00:00,16.1,14.2,30.38,WNW,303,0.0,0.0,92,0.00,,---,0.00,VWS V13.01,2013-01-08 06:00:00,
2013-01-08 01:05:00,16.1,14.2,30.38,WNW,303,0.0,0.0,92,0.00,,---,0.00,VWS V13.01,2013-01-08 06:05:00,
2013-01-08 01:10:00,16.6,14.7,30.38,WNW,303,0.0,1.0,92,0.00,,---,0.00,VWS V13.01,2013-01-08 06:10:00,
2013-01-08 01:16:00,17.0,15.3,30.38,WNW,303,0.0,1.0,93,0.00,,---,0.00,VWS V13.01,2013-01-08 06:16:00,
2013-01-08 01:21:00,18.1,16.4,30.38,WNW,303,0.0,1.0,93,0.00,,---,0.00,VWS V13.01,2013-01-08 06:21:00,
2013-01-08 01:26:00,17.4,15.7,30.38,WNW,303,0.0,1.0,93,0.00,,---,0.00,VWS V13.01,2013-01-08 06:26:00,
2013-01-08 01:31:00,16.1,14.2,30.38,WNW,303,0.0,0.0,92,0.00,,---,0.00,VWS V13.01,2013-01-08 06:31:00,
2013-01-08 01:36:00,14.8,12.6,30.38,WNW,303,0.0,0.0,91,0.00,,---,0.00,VWS V13.01,2013-01-08 06:36:00,
2013-01-08 01:41:00,14.5,12.6,30.38,WNW,303,0.0,0.0,92,0.00,,---,0.00,VWS V13.01,2013-01-08 06:41:00,
2013-01-08 01:46:00,14.3,12.4,30.38,WNW,303,0.0,0.0,92,0.00,,---,0.00,VWS V13.01,2013-01-08 06:46:00,
2013-01-08 01:51:00,13.9,12.0,30.39,WNW,303,0.0,0.0,92,0.00,,---,0.00,VWS V13.01,2013-01-08 06:51:00,
2013-01-08 01:56:00,13.8,11.9,30.39,WNW,303,0.0,0.0,92,0.00,,---,0.00,VWS V13.01,2013-01-08 06:56:00,
2013-01-08 02:01:00,14.0,12.1,30.39,WNW,303,0.0,0.0,92,0.00,,---,0.00,VWS V13.01,2013-01-08 07:01:00,
2013-01-08 02:06:00,13.0,10.9,30.39,WNW,303,0.0,0.0,91,0.00,,---,0.00,VWS V13.01,2013-01-08 07:06:00,
2013-01-08 02:11:00,12.6,10.7,30.40,WNW,303,0.0,0.0,92,0.00,,---,0.00,VWS V13.01,2013-01-08 07:11:00,
2013-01-08 02:16:00,12.4,10.5,30.39,WNW,303,0.0,0.0,92,0.00,,---,0.00,VWS V13.01,2013-01-08 07:16:00,
2013-01-08 02:22:00,12.6,10.7,30.40,WNW,303,0.0,1.0,92,0.00,,---,0.00,VWS V13.01,2013-01-08 07:22:00,
2013-01-08 02:27:00,12.8,10.9,30.40,WNW,303,0.0,1.0,92,0.00,,---,0.00,VWS V13.01,2013-01-08 07:27:00,
2013-01-08 02:32:00,12.1,10.2,30.40,WNW,303,0.0,0.0,92,0.00,,---,0.00,VWS V13.01,2013-01-08 07:32:00,
2013-01-08 02:37:00,12.1,10.2,30.40,WNW,303,0.0,0.0,92,0.00,,---,0.00,VWS V13.01,2013-01-08 07:37:00,
2013-01-08 02:42:00,12.0,10.1,30.40,WNW,303,0.0,0.0,92,0.00,,---,0.00,VWS V13.01,2013-01-08 07:42:00,
2013-01-08 02:47:00,11.9,10.0,30.40,WNW,303,0.0,0.0,92,0.00,,---,0.00,VWS V13.01,2013-01-08 07:47:00,
2013-01-08 02:52:00,11.5,9.6,30.39,WNW,303,0.0,0.0,92,0.00,,---,0.00,VWS V13.01,2013-01-08 07:52:00,
2013-01-08 02:57:00,11.3,9.4,30.39,WNW,303,0.0,0.0,92,0.00,,---,0.00,VWS V13.01,2013-01-08 07:57:00,
2013-01-08 03:02:00,10.6,8.5,30.39,WNW,303,0.0,0.0,91,0.00,,---,0.00,VWS V13.01,2013-01-08 08:02:00,
2013-01-08 03:07:00,10.1,8.0,30.40,WNW,303,0.0,0.0,91,0.00,,---,0.00,VWS V13.01,2013-01-08 08:07:00,
2013-01-08 03:12:00,10.0,7.9,30.40,WNW,303,0.0,0.0,91,0.00,,---,0.00,VWS V13.01,2013-01-08 08:12:00,
2013-01-08 03:17:00,10.2,8.1,30.40,WNW,303,0.0,0.0,91,0.00,,---,0.00,VWS V13.01,2013-01-08 08:17:00,
2013-01-08 03:22:00,10.1,8.0,30.41,WNW,303,0.0,1.0,91,0.00,,---,0.00,VWS V13.01,2013-01-08 08:22:00,
2013-01-08 03:27:00,10.3,8.4,30.41,WNW,303,0.0,1.0,92,0.00,,---,0.00,VWS V13.01,2013-01-08 08:27:00,
2013-01-08 03:32:00,10.4,8.3,30.41,WNW,303,0.0,0.0,91,0.00,,---,0.00,VWS V13.01,2013-01-08 08:32:00,
2013-01-08 03:37:00,10.3,8.2,30.41,WNW,303,0.0,0.0,91,0.00,,---,0.00,VWS V13.01,2013-01-08 08:37:00,
2013-01-08 03:43:00,10.1,8.0,30.40,WNW,303,0.0,0.0,91,0.00,,---,0.00,VWS V13.01,2013-01-08 08:43:00,
2013-01-08 03:48:00,9.6,7.5,30.41,WNW,303,0.0,0.0,91,0.00,,---,0.00,VWS V13.01,2013-01-08 08:48:00,
2013-01-08 03:53:00,9.2,7.1,30.41,WNW,303,0.0,0.0,91,0.00,,---,0.00,VWS V13.01,2013-01-08 08:53:00,
2013-01-08 03:58:00,9.0,6.9,30.41,WNW,303,0.0,0.0,91,0.00,,---,0.00,VWS V13.01,2013-01-08 08:58:00,
2013-01-08 04:03:00,9.2,7.1,30.41,WNW,303,0.0,0.0,91,0.00,,---,0.00,VWS V13.01,2013-01-08 09:03:00,
2013-01-08 04:08:00,9.0,6.9,30.41,WNW,303,0.0,0.0,91,0.00,,---,0.00,VWS V13.01,2013-01-08 09:08:00,
2013-01-08 04:13:00,8.7,6.6,30.42,WNW,303,0.0,0.0,91,0.00,,---,0.00,VWS V13.01,2013-01-08 09:13:00,
2013-01-08 04:18:00,9.4,7.3,30.41,WNW,303,0.0,0.0,91,0.00,,---,0.00,VWS V13.01,2013-01-08 09:18:00,
2013-01-08 04:23:00,9.2,7.1,30.41,WNW,303,0.0,0.0,91,0.00,,---,0.00,VWS V13.01,2013-01-08 09:23:00,
2013-01-08 04:28:00,9.2,7.1,30.41,WNW,303,0.0,0.0,91,0.00,,---,0.00,VWS V13.01,2013-01-08 09:28:00,
2013-01-08 04:33:00,9.6,7.5,30.41,WNW,303,0.0,0.0,91,0.00,,---,0.00,VWS V13.01,2013-01-08 09:33:00,
2013-01-08 04:38:00,9.8,7.7,30.42,WNW,303,0.0,0.0,91,0.00,,---,0.00,VWS V13.01,2013-01-08 09:38:00,
2013-01-08 04:43:00,9.5,7.4,30.42,WNW,303,0.0,0.0,91,0.00,,---,0.00,VWS V13.01,2013-01-08 09:43:00,
2013-01-08 04:48:00,9.2,7.1,30.42,WNW,303,0.0,0.0,91,0.00,,---,0.00,VWS V13.01,2013-01-08 09:48:00,
2013-01-08 04:54:00,8.7,6.4,30.42,WNW,303,0.0,0.0,90,0.00,,---,0.00,VWS V13.01,2013-01-08 09:54:00,
2013-01-08 04:59:00,8.3,6.0,30.42,WNW,303,0.0,0.0,90,0.00,,---,0.00,VWS V13.01,2013-01-08 09:59:00,
2013-01-08 05:04:00,8.7,6.6,30.42,WNW,303,0.0,0.0,91,0.00,,---,0.00,VWS V13.01,2013-01-08 10:04:00,
2013-01-08 05:09:00,9.4,7.3,30.42,WNW,303,0.0,0.0,91,0.00,,---,0.00,VWS V13.01,2013-01-08 10:09:00,
2013-01-08 05:14:00,8.8,6.5,30.43,WNW,303,0.0,2.0,90,0.00,,---,0.00,VWS V13.01,2013-01-08 10:14:00,
2013-01-08 05:19:00,9.2,7.1,30.42,WNW,303,0.0,2.0,91,0.00,,---,0.00,VWS V13.01,2013-01-08 10:19:00,
2013-01-08 05:24:00,9.6,7.5,30.42,WNW,303,0.0,2.0,91,0.00,,---,0.00,VWS V13.01,2013-01-08 10:24:00,
2013-01-08 05:29:00,9.2,7.1,30.43,WNW,303,0.0,2.0,91,0.00,,---,0.00,VWS V13.01,2013-01-08 10:29:00,
2013-01-08 05:34:00,8.4,6.1,30.43,WNW,303,0.0,0.0,90,0.00,,---,0.00,VWS V13.01,2013-01-08 10:34:00,
2013-01-08 05:39:00,9.1,7.0,30.43,WNW,303,0.0,0.0,91,0.00,,---,0.00,VWS V13.01,2013-01-08 10:39:00,
2013-01-08 05:44:00,9.8,7.7,30.43,WNW,303,0.0,0.0,91,0.00,,---,0.00,VWS V13.01,2013-01-08 10:44:00,
2013-01-08 05:49:00,9.3,7.2,30.44,SSW,200,4.0,5.0,91,0.00,,---,0.00,VWS V13.01,2013-01-08 10:49:00,
2013-01-08 05:54:00,9.9,7.8,30.43,WSW,254,0.0,6.0,91,0.00,,---,0.00,VWS V13.01,2013-01-08 10:54:00,
2013-01-08 06:00:00,10.2,8.1,30.44,WSW,254,0.0,6.0,91,0.00,,---,0.00,VWS V13.01,2013-01-08 11:00:00,
2013-01-08 06:05:00,10.8,8.9,30.44,WSW,254,0.0,0.0,92,0.00,,---,0.00,VWS V13.01,2013-01-08 11:05:00,
2013-01-08 06:10:00,11.1,9.2,30.44,WSW,254,0.0,0.0,92,0.00,,---,0.00,VWS V13.01,2013-01-08 11:10:00,
2013-01-08 06:15:00,10.3,8.2,30.44,WSW,254,0.0,0.0,91,0.00,,---,0.00,VWS V13.01,2013-01-08 11:15:00,
2013-01-08 06:20:00,9.9,7.8,30.44,WSW,254,0.0,0.0,91,0.00,,---,0.00,VWS V13.01,2013-01-08 11:20:00,
2013-01-08 06:25:00,8.9,6.6,30.44,WSW,254,0.0,0.0,90,0.00,,---,0.00,VWS V13.01,2013-01-08 11:25:00,
2013-01-08 06:30:00,8.7,6.4,30.45,WSW,254,0.0,0.0,90,0.00,,---,0.00,VWS V13.01,2013-01-08 11:30:00,
2013-01-08 06:35:00,9.0,6.9,30.45,WSW,254,0.0,0.0,91,0.00,,---,0.00,VWS V13.01,2013-01-08 11:35:00,
2013-01-08 06:40:00,9.1,7.0,30.46,WSW,254,0.0,0.0,91,0.00,,---,0.00,VWS V13.01,2013-01-08 11:40:00,
2013-01-08 06:45:00,8.2,5.9,30.46,WSW,254,0.0,1.0,90,0.00,,---,0.00,VWS V13.01,2013-01-08 11:45:00,
2013-01-08 06:50:00,7.4,4.8,30.46,WSW,254,0.0,1.0,89,0.00,,---,0.00,VWS V13.01,2013-01-08 11:50:00,
2013-01-08 06:55:00,7.6,5.3,30.46,WSW,254,0.0,1.0,90,0.00,,---,0.00,VWS V13.01,2013-01-08 11:55:00,
2013-01-08 07:00:00,7.9,5.6,30.47,WSW,254,0.0,0.0,90,0.00,,---,0.00,VWS V13.01,2013-01-08 12:00:00,
2013-01-08 07:06:00,7.8,5.5,30.47,WSW,254,0.0,0.0,90,0.00,,---,0.00,VWS V13.01,2013-01-08 12:06:00,
2013-01-08 07:11:00,7.7,5.4,30.47,WSW,254,0.0,0.0,90,0.00,,---,0.00,VWS V13.01,2013-01-08 12:11:00,
2013-01-08 07:16:00,7.1,4.8,30.47,WSW,254,0.0,0.0,90,0.00,,---,0.00,VWS V13.01,2013-01-08 12:16:00,
2013-01-08 07:21:00,7.0,4.7,30.48,WSW,254,0.0,0.0,90,0.00,,---,0.00,VWS V13.01,2013-01-08 12:21:00,
2013-01-08 07:26:00,7.5,5.2,30.48,WSW,254,0.0,0.0,90,0.00,,---,0.00,VWS V13.01,2013-01-08 12:26:00,
2013-01-08 07:31:00,8.2,6.1,30.47,WSW,254,0.0,0.0,91,0.00,,---,0.00,VWS V13.01,2013-01-08 12:31:00,
2013-01-08 07:36:00,8.1,6.0,30.48,WSW,254,0.0,0.0,91,0.00,,---,0.00,VWS V13.01,2013-01-08 12:36:00,
2013-01-08 07:41:00,7.9,5.6,30.48,WSW,254,0.0,0.0,90,0.00,,---,0.00,VWS V13.01,2013-01-08 12:41:00,
2013-01-08 07:46:00,8.1,6.0,30.48,WSW,254,0.0,0.0,91,0.00,,---,0.00,VWS V13.01,2013-01-08 12:46:00,
2013-01-08 07:51:00,7.3,4.8,30.49,WSW,254,0.0,0.0,89,0.00,,---,0.00,VWS V13.01,2013-01-08 12:51:00,
2013-01-08 07:56:00,7.3,5.0,30.49,WSW,254,0.0,0.0,90,0.00,,---,0.00,VWS V13.01,2013-01-08 12:56:00,
2013-01-08 08:01:00,7.5,5.2,30.49,WSW,254,0.0,0.0,90,0.00,,---,0.00,VWS V13.01,2013-01-08 13:01:00,
2013-01-08 08:07:00,7.8,5.5,30.49,WSW,254,0.0,0.0,90,0.00,,---,0.00,VWS V13.01,2013-01-08 13:07:00,
2013-01-08 08:12:00,7.4,5.1,30.50,WSW,254,0.0,0.0,90,0.00,,---,0.00,VWS V13.01,2013-01-08 13:12:00,
2013-01-08 08:17:00,6.5,4.0,30.50,WSW,254,0.0,0.0,89,0.00,,---,0.00,VWS V13.01,2013-01-08 13:17:00,
2013-01-08 08:22:00,6.4,4.1,30.50,WSW,254,0.0,0.0,90,0.00,,---,0.00,VWS V13.01,2013-01-08 13:22:00,
2013-01-08 08:27:00,6.7,4.4,30.51,WSW,254,0.0,0.0,90,0.00,,---,0.00,VWS V13.01,2013-01-08 13:27:00,
2013-01-08 08:32:00,7.2,4.9,30.51,WSW,254,0.0,0.0,90,0.00,,---,0.00,VWS V13.01,2013-01-08 13:32:00,
2013-01-08 08:37:00,7.3,5.0,30.51,WSW,254,0.0,0.0,90,0.00,,---,0.00,VWS V13.01,2013-01-08 13:37:00,
2013-01-08 08:42:00,7.3,5.0,30.51,WSW,254,0.0,0.0,90,0.00,,---,0.00,VWS V13.01,2013-01-08 13:42:00,
2013-01-08 08:47:00,8.3,6.2,30.51,WSW,254,0.0,0.0,91,0.00,,---,0.00,VWS V13.01,2013-01-08 13:47:00,
2013-01-08 08:52:00,9.2,7.1,30.51,WSW,254,0.0,0.0,91,0.00,,---,0.00,VWS V13.01,2013-01-08 13:52:00,
2013-01-08 08:57:00,9.6,7.5,30.51,WSW,254,0.0,0.0,91,0.00,,---,0.00,VWS V13.01,2013-01-08 13:57:00,
2013-01-08 09:02:00,9.8,7.7,30.51,WSW,254,0.0,0.0,91,0.00,,---,0.00,VWS V13.01,2013-01-08 14:02:00,
2013-01-08 09:08:00,10.1,8.0,30.51,WSW,254,0.0,0.0,91,0.00,,---,0.00,VWS V13.01,2013-01-08 14:08:00,
2013-01-08 09:13:00,10.2,8.1,30.51,WSW,254,0.0,0.0,91,0.00,,---,0.00,VWS V13.01,2013-01-08 14:13:00,
2013-01-08 09:18:00,10.3,8.2,30.51,WSW,254,0.0,0.0,91,0.00,,---,0.00,VWS V13.01,2013-01-08 14:18:00,
2013-01-08 09:23:00,10.5,8.4,30.51,WSW,254,0.0,0.0,91,0.00,,---,0.00,VWS V13.01,2013-01-08 14:23:00,
2013-01-08 09:28:00,10.7,8.6,30.50,WSW,254,0.0,0.0,91,0.00,,---,0.00,VWS V13.01,2013-01-08 14:28:00,
2013-01-08 09:33:00,11.0,8.9,30.51,WSW,254,0.0,0.0,91,0.00,,---,0.00,VWS V13.01,2013-01-08 14:33:00,
2013-01-08 09:38:00,11.7,9.6,30.51,WSW,254,0.0,0.0,91,0.00,,---,0.00,VWS V13.01,2013-01-08 14:38:00,
2013-01-08 09:43:00,12.8,10.9,30.51,WSW,254,0.0,0.0,92,0.00,,---,0.00,VWS V13.01,2013-01-08 14:43:00,
2013-01-08 09:48:00,13.9,12.0,30.51,WSW,254,0.0,0.0,92,0.00,,---,0.00,VWS V13.01,2013-01-08 14:48:00,
2013-01-08 09:53:00,14.8,12.9,30.51,WSW,254,0.0,1.0,92,0.00,,---,0.00,VWS V13.01,2013-01-08 14:53:00,
2013-01-08 09:58:00,15.8,14.1,30.51,WSW,254,0.0,1.0,93,0.00,,---,0.00,VWS V13.01,2013-01-08 14:58:00,
2013-01-08 10:03:00,16.6,14.9,30.51,WSW,254,0.0,0.0,93,0.00,,---,0.00,VWS V13.01,2013-01-08 15:03:00,
2013-01-08 10:09:00,17.0,15.3,30.51,WSW,254,0.0,0.0,93,0.00,,---,0.00,VWS V13.01,2013-01-08 15:09:00,
2013-01-08 10:14:00,17.4,15.7,30.51,WSW,239,0.0,0.0,93,0.00,,---,0.00,VWS V13.01,2013-01-08 15:14:00,
2013-01-08 10:19:00,18.1,16.4,30.51,WSW,239,0.0,0.0,93,0.00,,---,0.00,VWS V13.01,2013-01-08 15:19:00,
2013-01-08 10:24:00,18.6,16.9,30.51,WSW,238,0.0,0.0,93,0.00,,---,0.00,VWS V13.01,2013-01-08 15:24:00,
2013-01-08 10:29:00,19.2,17.5,30.51,WSW,238,0.0,0.0,93,0.00,,---,0.00,VWS V13.01,2013-01-08 15:29:00,
2013-01-08 10:34:00,20.3,18.6,30.51,WSW,238,0.0,0.0,93,0.00,,---,0.00,VWS V13.01,2013-01-08 15:34:00,
2013-01-08 10:39:00,21.1,19.4,30.51,WSW,239,0.0,0.0,93,0.00,,---,0.00,VWS V13.01,2013-01-08 15:39:00,
2013-01-08 10:44:00,21.4,19.7,30.51,WSW,238,0.0,0.0,93,0.00,,---,0.00,VWS V13.01,2013-01-08 15:44:00,
2013-01-08 10:49:00,22.4,20.9,30.51,SW,233,0.0,4.0,94,0.00,,---,0.00,VWS V13.01,2013-01-08 15:49:00,
2013-01-08 10:54:00,22.9,21.4,30.51,SW,233,1.0,4.0,94,0.00,,---,0.00,VWS V13.01,2013-01-08 15:54:00,
2013-01-08 10:59:00,22.5,20.8,30.51,SW,233,0.0,4.0,93,0.00,,---,0.00,VWS V13.01,2013-01-08 15:59:00,
2013-01-08 11:04:00,23.3,21.8,30.51,SW,233,0.0,2.0,94,0.00,,---,0.00,VWS V13.01,2013-01-08 16:04:00,
2013-01-08 11:10:00,24.0,22.5,30.50,SW,233,0.0,2.0,94,0.00,,---,0.00,VWS V13.01,2013-01-08 16:10:00,
2013-01-08 11:15:00,24.9,23.7,30.50,SW,233,0.0,2.0,95,0.00,,---,0.00,VWS V13.01,2013-01-08 16:15:00,
2013-01-08 11:20:00,25.8,24.3,30.50,SW,233,0.0,2.0,94,0.00,,---,0.00,VWS V13.01,2013-01-08 16:20:00,
2013-01-08 11:25:00,26.6,25.4,30.50,SW,233,0.0,2.0,95,0.00,,---,0.00,VWS V13.01,2013-01-08 16:25:00,
2013-01-08 11:30:00,26.8,25.6,30.50,SW,233,0.0,2.0,95,0.00,,---,0.00,VWS V13.01,2013-01-08 16:30:00,
2013-01-08 11:35:00,27.0,25.8,30.50,SW,233,0.0,1.0,95,0.00,,---,0.00,VWS V13.01,2013-01-08 16:35:00,
2013-01-08 11:40:00,27.4,26.2,30.50,SW,233,2.0,2.0,95,0.00,,---,0.00,VWS V13.01,2013-01-08 16:40:00,
2013-01-08 11:45:00,27.6,26.1,30.50,SW,233,1.0,3.0,94,0.00,,---,0.00,VWS V13.01,2013-01-08 16:45:00,
2013-01-08 11:50:00,27.8,26.3,30.49,SW,233,0.0,3.0,94,0.00,,---,0.00,VWS V13.01,2013-01-08 16:50:00,
2013-01-08 11:55:00,28.3,26.8,30.48,SW,233,0.0,3.0,94,0.00,,---,0.00,VWS V13.01,2013-01-08 16:55:00,
2013-01-08 12:00:00,28.7,27.2,30.48,SW,233,0.0,0.0,94,0.00,,---,0.00,VWS V13.01,2013-01-08 17:00:00,
2013-01-08 12:06:00,29.5,28.0,30.48,SW,233,0.0,1.0,94,0.01,,---,0.01,VWS V13.01,2013-01-08 17:06:00,
2013-01-08 12:11:00,30.2,28.7,30.48,SW,233,0.0,2.0,94,0.01,,---,0.01,VWS V13.01,2013-01-08 17:11:00,
2013-01-08 12:16:00,30.9,28.9,30.48,WNW,284,0.0,8.0,92,0.01,,---,0.01,VWS V13.01,2013-01-08 17:16:00,
2013-01-08 12:21:00,31.9,29.0,30.47,WNW,284,0.0,8.0,89,0.01,,---,0.01,VWS V13.01,2013-01-08 17:21:00,
2013-01-08 12:26:00,32.5,28.5,30.47,WNW,288,0.0,8.0,85,0.01,,---,0.01,VWS V13.01,2013-01-08 17:26:00,
2013-01-08 12:31:00,33.2,28.9,30.47,WNW,288,0.0,1.0,84,0.01,,---,0.01,VWS V13.01,2013-01-08 17:31:00,
2013-01-08 12:36:00,34.2,28.7,30.47,WNW,284,0.0,5.0,80,0.01,,---,0.01,VWS V13.01,2013-01-08 17:36:00,
2013-01-08 12:41:00,34.7,28.5,30.47,WNW,285,1.0,5.0,78,0.01,,---,0.01,VWS V13.01,2013-01-08 17:41:00,
2013-01-08 12:46:00,35.1,28.3,30.47,WNW,285,5.0,5.0,76,0.01,,---,0.01,VWS V13.01,2013-01-08 17:46:00,
2013-01-08 12:51:00,35.7,28.2,30.47,WNW,288,3.0,9.0,74,0.01,,---,0.01,VWS V13.01,2013-01-08 17:51:00,
2013-01-08 12:56:00,35.3,27.5,30.47,WNW,289,5.0,9.0,73,0.01,,---,0.01,VWS V13.01,2013-01-08 17:56:00,
2013-01-08 13:02:00,35.9,27.8,30.47,WNW,290,5.0,5.0,72,0.01,,---,0.01,VWS V13.01,2013-01-08 18:02:00,
2013-01-08 13:07:00,36.4,28.6,30.47,WNW,292,5.0,6.0,73,0.01,,---,0.01,VWS V13.01,2013-01-08 18:07:00,
2013-01-08 13:12:00,36.8,28.0,30.46,NW,309,0.0,6.0,70,0.01,,---,0.01,VWS V13.01,2013-01-08 18:12:00,
2013-01-08 13:17:00,37.3,29.5,30.46,NW,309,0.0,6.0,73,0.01,,---,0.01,VWS V13.01,2013-01-08 18:17:00,
2013-01-08 13:22:00,37.5,28.6,30.46,NW,309,0.0,6.0,70,0.01,,---,0.01,VWS V13.01,2013-01-08 18:22:00,
2013-01-08 13:27:00,37.9,30.0,30.46,NW,309,0.0,6.0,73,0.01,,---,0.01,VWS V13.01,2013-01-08 18:27:00,
2013-01-08 13:32:00,37.3,29.8,30.46,NW,309,0.0,0.0,74,0.00,,---,0.01,VWS V13.01,2013-01-08 18:32:00,
2013-01-08 13:37:00,37.3,30.1,30.45,NW,309,0.0,0.0,75,0.01,,---,0.02,VWS V13.01,2013-01-08 18:37:00,
2013-01-08 13:42:00,36.8,30.0,30.45,NW,309,0.0,1.0,76,0.01,,---,0.02,VWS V13.01,2013-01-08 18:42:00,
2013-01-08 13:47:00,36.7,30.5,30.45,NW,309,0.0,1.0,78,0.02,,---,0.03,VWS V13.01,2013-01-08 18:47:00,
2013-01-08 13:52:00,37.1,29.6,30.46,NW,309,0.0,2.0,74,0.03,,---,0.04,VWS V13.01,2013-01-08 18:52:00,
2013-01-08 13:57:00,37.9,31.0,30.46,NW,309,0.0,2.0,76,0.03,,---,0.04,VWS V13.01,2013-01-08 18:57:00,
2013-01-08 14:02:00,37.7,30.5,30.47,NW,309,0.0,1.0,75,0.03,,---,0.04,VWS V13.01,2013-01-08 19:02:00,
2013-01-08 14:07:00,37.2,30.0,30.47,NW,309,0.0,1.0,75,0.03,,---,0.04,VWS V13.01,2013-01-08 19:07:00,
2013-01-08 14:13:00,36.5,29.3,30.47,NW,309,0.0,1.0,75,0.03,,---,0.04,VWS V13.01,2013-01-08 19:13:00,
2013-01-08 14:18:00,36.2,29.4,30.47,NW,309,0.0,1.0,76,0.04,,---,0.05,VWS V13.01,2013-01-08 19:18:00,
2013-01-08 14:23:00,36.6,30.1,30.47,NW,309,0.0,1.0,77,0.04,,---,0.05,VWS V13.01,2013-01-08 19:23:00,
2013-01-08 14:28:00,37.1,30.2,30.47,NW,309,0.0,1.0,76,0.04,,---,0.05,VWS V13.01,2013-01-08 19:28:00,
2013-01-08 14:33:00,37.7,31.5,30.47,NW,309,0.0,0.0,78,0.05,,---,0.06,VWS V13.01,2013-01-08 19:33:00,
2013-01-08 14:38:00,38.0,31.1,30.47,NW,309,0.0,2.0,76,0.05,,---,0.06,VWS V13.01,2013-01-08 19:38:00,
2013-01-08 14:43:00,37.6,30.4,30.48,NW,309,0.0,2.0,75,0.05,,---,0.06,VWS V13.01,2013-01-08 19:43:00,
2013-01-08 14:48:00,37.0,29.5,30.48,NW,309,0.0,2.0,74,0.05,,---,0.06,VWS V13.01,2013-01-08 19:48:00,
2013-01-08 14:53:00,37.0,28.8,30.48,NW,309,0.0,2.0,72,0.05,,---,0.06,VWS V13.01,2013-01-08 19:53:00,
2013-01-08 14:58:00,37.1,29.3,30.49,NW,309,0.0,2.0,73,0.05,,---,0.06,VWS V13.01,2013-01-08 19:58:00,
2013-01-08 15:03:00,37.6,27.6,30.49,NW,309,0.0,3.0,67,0.02,,---,0.06,VWS V13.01,2013-01-08 20:03:00,
2013-01-08 15:08:00,37.8,28.2,30.48,NW,309,0.0,3.0,68,0.02,,---,0.06,VWS V13.01,2013-01-08 20:08:00,
2013-01-08 15:13:00,37.3,29.5,30.49,NW,309,0.0,3.0,73,0.02,,---,0.06,VWS V13.01,2013-01-08 20:13:00,
2013-01-08 15:18:00,36.5,28.4,30.49,NW,309,0.0,3.0,72,0.03,,---,0.07,VWS V13.01,2013-01-08 20:18:00,
2013-01-08 15:24:00,36.9,28.7,30.49,NW,309,0.0,3.0,72,0.03,,---,0.07,VWS V13.01,2013-01-08 20:24:00,
2013-01-08 15:29:00,36.8,28.3,30.49,NW,309,0.0,3.0,71,0.03,,---,0.07,VWS V13.01,2013-01-08 20:29:00,
2013-01-08 15:34:00,36.4,28.9,30.49,NW,309,0.0,0.0,74,0.02,,---,0.07,VWS V13.01,2013-01-08 20:34:00,
2013-01-08 15:39:00,36.0,29.2,30.49,NW,309,0.0,1.0,76,0.02,,---,0.07,VWS V13.01,2013-01-08 20:39:00,
2013-01-08 15:44:00,35.5,29.0,30.49,NW,309,0.0,1.0,77,0.02,,---,0.07,VWS V13.01,2013-01-08 20:44:00,
2013-01-08 15:49:00,34.9,29.1,30.49,NW,309,0.0,1.0,79,0.02,,---,0.07,VWS V13.01,2013-01-08 20:49:00,
2013-01-08 15:54:00,34.5,28.7,30.48,NW,309,0.0,1.0,79,0.02,,---,0.07,VWS V13.01,2013-01-08 20:54:00,
2013-01-08 15:59:00,34.4,28.9,30.48,NW,309,0.0,1.0,80,0.02,,---,0.07,VWS V13.01,2013-01-08 20:59:00,
2013-01-08 16:04:00,34.3,28.8,30.48,NW,309,0.0,0.0,80,0.01,,---,0.07,VWS V13.01,2013-01-08 21:04:00,
2013-01-08 16:09:00,34.0,28.5,30.48,NW,309,0.0,1.0,80,0.01,,---,0.07,VWS V13.01,2013-01-08 21:09:00,
2013-01-08 16:14:00,33.9,28.7,30.48,NW,309,0.0,1.0,81,0.01,,---,0.07,VWS V13.01,2013-01-08 21:14:00,
2013-01-08 16:19:00,33.8,28.3,30.49,NW,309,0.0,1.0,80,0.01,,---,0.07,VWS V13.01,2013-01-08 21:19:00,
2013-01-08 16:24:00,33.2,27.7,30.49,NW,309,0.0,1.0,80,0.01,,---,0.07,VWS V13.01,2013-01-08 21:24:00,
2013-01-08 16:29:00,32.7,27.5,30.49,NW,309,0.0,1.0,81,0.01,,---,0.07,VWS V13.01,2013-01-08 21:29:00,
2013-01-08 16:35:00,32.2,27.3,30.49,NW,309,0.0,0.0,82,0.00,,---,0.07,VWS V13.01,2013-01-08 21:35:00,
2013-01-08 16:40:00,32.0,27.4,30.49,NW,309,0.0,1.0,83,0.00,,---,0.07,VWS V13.01,2013-01-08 21:40:00,
2013-01-08 16:45:00,32.1,27.8,30.49,NW,309,0.0,1.0,84,0.00,,---,0.07,VWS V13.01,2013-01-08 21:45:00,
2013-01-08 16:50:00,32.3,28.0,30.49,NW,309,0.0,1.0,84,0.00,,---,0.07,VWS V13.01,2013-01-08 21:50:00,
2013-01-08 16:55:00,32.0,27.7,30.49,NW,309,0.0,1.0,84,0.00,,---,0.07,VWS V13.01,2013-01-08 21:55:00,
2013-01-08 17:00:00,31.2,26.6,30.49,NW,309,0.0,0.0,83,0.00,,---,0.07,VWS V13.01,2013-01-08 22:00:00,
2013-01-08 17:05:00,30.8,26.8,30.49,NW,309,0.0,0.0,85,0.00,,---,0.07,VWS V13.01,2013-01-08 22:05:00,
2013-01-08 17:11:00,30.6,26.6,30.50,NW,309,0.0,0.0,85,0.00,,---,0.07,VWS V13.01,2013-01-08 22:11:00,
2013-01-08 17:16:00,30.3,26.6,30.50,NW,309,0.0,1.0,86,0.00,,---,0.07,VWS V13.01,2013-01-08 22:16:00,
2013-01-08 17:21:00,30.0,26.3,30.50,NW,309,0.0,1.0,86,0.00,,---,0.07,VWS V13.01,2013-01-08 22:21:00,
2013-01-08 17:26:00,29.1,25.2,30.50,NW,309,0.0,1.0,85,0.00,,---,0.07,VWS V13.01,2013-01-08 22:26:00,
2013-01-08 17:31:00,28.5,25.1,30.51,NW,309,0.0,0.0,87,0.00,,---,0.07,VWS V13.01,2013-01-08 22:31:00,
2013-01-08 17:36:00,28.3,25.2,30.50,NW,309,0.0,0.0,88,0.00,,---,0.07,VWS V13.01,2013-01-08 22:36:00,
2013-01-08 17:41:00,28.3,25.5,30.50,NW,309,0.0,0.0,89,0.00,,---,0.07,VWS V13.01,2013-01-08 22:41:00,
2013-01-08 17:47:00,28.2,25.4,30.50,NW,309,0.0,0.0,89,0.00,,---,0.07,VWS V13.01,2013-01-08 22:47:00,
2013-01-08 17:52:00,27.8,24.7,30.50,NW,309,0.0,0.0,88,0.00,,---,0.07,VWS V13.01,2013-01-08 22:52:00,
2013-01-08 17:57:00,27.3,24.2,30.50,NW,309,0.0,0.0,88,0.00,,---,0.07,VWS V13.01,2013-01-08 22:57:00,
2013-01-08 18:02:00,26.9,24.1,30.50,NW,309,0.0,0.0,89,0.00,,---,0.07,VWS V13.01,2013-01-08 23:02:00,
2013-01-08 18:07:00,26.6,23.8,30.51,NW,309,0.0,0.0,89,0.00,,---,0.07,VWS V13.01,2013-01-08 23:07:00,
2013-01-08 18:12:00,26.0,22.9,30.50,NW,309,0.0,0.0,88,0.00,,---,0.07,VWS V13.01,2013-01-08 23:12:00,
2013-01-08 18:17:00,25.5,22.7,30.51,NW,309,0.0,0.0,89,0.00,,---,0.07,VWS V13.01,2013-01-08 23:17:00,
2013-01-08 18:23:00,25.8,23.5,30.51,NW,309,0.0,0.0,91,0.00,,---,0.07,VWS V13.01,2013-01-08 23:23:00,
2013-01-08 18:28:00,26.0,23.7,30.51,NW,309,0.0,0.0,91,0.00,,---,0.07,VWS V13.01,2013-01-08 23:28:00,
2013-01-08 18:33:00,25.4,22.9,30.51,NW,309,0.0,0.0,90,0.00,,---,0.07,VWS V13.01,2013-01-08 23:33:00,
2013-01-08 18:38:00,25.6,23.3,30.51,NW,309,0.0,0.0,91,0.00,,---,0.07,VWS V13.01,2013-01-08 23:38:00,
2013-01-08 18:43:00,25.9,23.9,30.52,NW,309,0.0,0.0,92,0.00,,---,0.07,VWS V13.01,2013-01-08 23:43:00,
2013-01-08 18:48:00,25.4,23.1,30.52,NW,309,0.0,0.0,91,0.00,,---,0.07,VWS V13.01,2013-01-08 23:48:00,
2013-01-08 18:53:00,25.4,23.1,30.52,NW,309,0.0,1.0,91,0.00,,---,0.07,VWS V13.01,2013-01-08 23:53:00,
2013-01-08 18:58:00,25.7,23.7,30.52,NW,309,0.0,1.0,92,0.00,,---,0.07,VWS V13.01,2013-01-08 23:58:00,
2013-01-08 19:04:00,25.1,22.6,30.52,NW,309,0.0,0.0,90,0.00,,---,0.07,VWS V13.01,2013-01-09 00:04:00,
2013-01-08 19:09:00,24.0,21.5,30.52,NW,309,0.0,0.0,90,0.00,,---,0.07,VWS V13.01,2013-01-09 00:09:00,
2013-01-08 19:14:00,23.8,21.6,30.52,NW,309,0.0,0.0,91,0.00,,---,0.07,VWS V13.01,2013-01-09 00:14:00,
2013-01-08 19:19:00,23.7,21.5,30.52,NW,309,0.0,0.0,91,0.00,,---,0.07,VWS V13.01,2013-01-09 00:19:00,
2013-01-08 19:24:00,23.4,21.2,30.52,NW,309,0.0,0.0,91,0.00,,---,0.07,VWS V13.01,2013-01-09 00:24:00,
2013-01-08 19:29:00,22.9,20.7,30.52,NW,309,0.0,0.0,91,0.00,,---,0.07,VWS V13.01,2013-01-09 00:29:00,
2013-01-08 19:34:00,22.6,20.6,30.52,NW,309,0.0,0.0,92,0.00,,---,0.07,VWS V13.01,2013-01-09 00:34:00,
2013-01-08 19:39:00,22.4,20.4,30.51,NW,309,0.0,0.0,92,0.00,,---,0.07,VWS V13.01,2013-01-09 00:39:00,
2013-01-08 19:44:00,22.1,20.1,30.51,NW,309,0.0,0.0,92,0.00,,---,0.07,VWS V13.01,2013-01-09 00:44:00,
2013-01-08 19:49:00,22.0,20.0,30.52,NW,309,0.0,1.0,92,0.00,,---,0.07,VWS V13.01,2013-01-09 00:49:00,
2013-01-08 19:54:00,22.4,20.7,30.52,NW,309,0.0,1.0,93,0.00,,---,0.07,VWS V13.01,2013-01-09 00:54:00,
2013-01-08 20:00:00,22.9,21.2,30.51,NW,309,0.0,1.0,93,0.00,,---,0.07,VWS V13.01,2013-01-09 01:00:00,
2013-01-08 20:05:00,22.7,21.0,30.51,NW,309,0.0,0.0,93,0.00,,---,0.07,VWS V13.01,2013-01-09 01:05:00,
2013-01-08 20:10:00,21.6,19.6,30.51,NW,309,0.0,0.0,92,0.00,,---,0.07,VWS V13.01,2013-01-09 01:10:00,
2013-01-08 20:15:00,21.2,19.5,30.52,NW,309,0.0,0.0,93,0.00,,---,0.07,VWS V13.01,2013-01-09 01:15:00,
2013-01-08 20:20:00,21.2,19.5,30.52,NW,309,0.0,0.0,93,0.00,,---,0.07,VWS V13.01,2013-01-09 01:20:00,
2013-01-08 20:25:00,21.3,19.6,30.51,NW,309,0.0,0.0,93,0.00,,---,0.07,VWS V13.01,2013-01-09 01:25:00,
2013-01-08 20:30:00,20.5,18.8,30.51,NW,309,0.0,0.0,93,0.00,,---,0.07,VWS V13.01,2013-01-09 01:30:00,
2013-01-08 20:35:00,19.5,17.6,30.51,NW,309,0.0,0.0,92,0.00,,---,0.07,VWS V13.01,2013-01-09 01:35:00,
2013-01-08 20:40:00,18.8,16.9,30.52,NW,309,0.0,0.0,92,0.00,,---,0.07,VWS V13.01,2013-01-09 01:40:00,
2013-01-08 20:45:00,18.6,16.9,30.52,NW,309,0.0,0.0,93,0.00,,---,0.07,VWS V13.01,2013-01-09 01:45:00,
2013-01-08 20:51:00,19.2,17.5,30.52,NW,309,0.0,0.0,93,0.00,,---,0.07,VWS V13.01,2013-01-09 01:51:00,
2013-01-08 20:56:00,19.7,18.3,30.52,NW,309,0.0,0.0,94,0.00,,---,0.07,VWS V13.01,2013-01-09 01:56:00,
2013-01-08 21:01:00,18.9,17.2,30.53,NW,309,0.0,0.0,93,0.00,,---,0.07,VWS V13.01,2013-01-09 02:01:00,
2013-01-08 21:06:00,18.5,16.8,30.53,NW,309,0.0,0.0,93,0.00,,---,0.07,VWS V13.01,2013-01-09 02:06:00,
2013-01-08 21:11:00,19.1,17.7,30.53,NW,309,0.0,0.0,94,0.00,,---,0.07,VWS V13.01,2013-01-09 02:11:00,
2013-01-08 21:16:00,19.7,18.3,30.53,NW,309,0.0,0.0,94,0.00,,---,0.07,VWS V13.01,2013-01-09 02:16:00,
2013-01-08 21:21:00,19.5,18.1,30.52,NW,309,0.0,0.0,94,0.00,,---,0.07,VWS V13.01,2013-01-09 02:21:00,
2013-01-08 21:26:00,19.1,17.7,30.53,NW,309,0.0,0.0,94,0.00,,---,0.07,VWS V13.01,2013-01-09 02:26:00,
2013-01-08 21:31:00,19.2,17.8,30.53,NW,309,0.0,0.0,94,0.00,,---,0.07,VWS V13.01,2013-01-09 02:31:00,
2013-01-08 21:36:00,20.1,18.6,30.53,NW,309,0.0,0.0,94,0.00,,---,0.07,VWS V13.01,2013-01-09 02:36:00,
2013-01-08 21:42:00,20.9,19.5,30.52,NW,309,0.0,0.0,94,0.00,,---,0.07,VWS V13.01,2013-01-09 02:42:00,
2013-01-08 21:47:00,20.3,18.9,30.52,NW,309,0.0,0.0,94,0.00,,---,0.07,VWS V13.01,2013-01-09 02:47:00,
2013-01-08 21:52:00,20.1,18.6,30.52,NW,309,0.0,0.0,94,0.00,,---,0.07,VWS V13.01,2013-01-09 02:52:00,
2013-01-08 21:57:00,20.6,19.1,30.52,NW,309,0.0,0.0,94,0.00,,---,0.07,VWS V13.01,2013-01-09 02:57:00,
2013-01-08 22:02:00,20.9,19.5,30.53,NW,309,0.0,0.0,94,0.00,,---,0.07,VWS V13.01,2013-01-09 03:02:00,
2013-01-08 22:07:00,20.9,19.5,30.53,NW,309,0.0,0.0,94,0.00,,---,0.07,VWS V13.01,2013-01-09 03:07:00,
2013-01-08 22:12:00,20.7,19.2,30.52,NW,309,0.0,0.0,94,0.00,,---,0.07,VWS V13.01,2013-01-09 03:12:00,
2013-01-08 22:17:00,20.1,18.6,30.53,NW,309,0.0,0.0,94,0.00,,---,0.07,VWS V13.01,2013-01-09 03:17:00,
2013-01-08 22:22:00,19.1,17.4,30.52,NW,309,0.0,0.0,93,0.00,,---,0.07,VWS V13.01,2013-01-09 03:22:00,
2013-01-08 22:27:00,19.3,17.9,30.52,NW,309,0.0,1.0,94,0.00,,---,0.07,VWS V13.01,2013-01-09 03:27:00,
2013-01-08 22:33:00,19.9,18.5,30.52,NW,309,0.0,0.0,94,0.00,,---,0.07,VWS V13.01,2013-01-09 03:33:00,
2013-01-08 22:38:00,20.1,18.6,30.51,NW,309,0.0,0.0,94,0.00,,---,0.07,VWS V13.01,2013-01-09 03:38:00,
2013-01-08 22:43:00,19.9,18.5,30.51,NW,309,0.0,0.0,94,0.00,,---,0.07,VWS V13.01,2013-01-09 03:43:00,
2013-01-08 22:48:00,19.0,17.3,30.51,NW,309,0.0,0.0,93,0.00,,---,0.07,VWS V13.01,2013-01-09 03:48:00,
2013-01-08 22:53:00,18.4,16.7,30.50,NW,309,0.0,0.0,93,0.00,,---,0.07,VWS V13.01,2013-01-09 03:53:00,
2013-01-08 22:58:00,18.3,16.6,30.50,NW,309,0.0,0.0,93,0.00,,---,0.07,VWS V13.01,2013-01-09 03:58:00,
2013-01-08 23:03:00,18.0,16.3,30.50,NW,309,0.0,0.0,93,0.00,,---,0.07,VWS V13.01,2013-01-09 04:03:00,
2013-01-08 23:08:00,17.9,16.5,30.51,NW,309,0.0,0.0,94,0.00,,---,0.07,VWS V13.01,2013-01-09 04:08:00,
2013-01-08 23:13:00,17.2,15.5,30.51,NW,309,0.0,0.0,93,0.00,,---,0.07,VWS V13.01,2013-01-09 04:13:00,
2013-01-08 23:18:00,16.3,14.6,30.51,NW,309,0.0,0.0,93,0.00,,---,0.07,VWS V13.01,2013-01-09 04:18:00,
2013-01-08 23:23:00,16.1,14.4,30.51,NW,309,0.0,0.0,93,0.00,,---,0.07,VWS V13.01,2013-01-09 04:23:00,
2013-01-08 23:28:00,16.3,14.6,30.51,NW,309,0.0,0.0,93,0.00,,---,0.07,VWS V13.01,2013-01-09 04:28:00,
2013-01-08 23:34:00,17.6,16.2,30.50,NW,309,0.0,0.0,94,0.00,,---,0.07,VWS V13.01,2013-01-09 04:34:00,
2013-01-08 23:39:00,18.2,16.8,30.50,NW,309,0.0,0.0,94,0.00,,---,0.07,VWS V13.01,2013-01-09 04:39:00,
2013-01-08 23:44:00,18.0,16.6,30.50,NW,309,0.0,0.0,94,0.00,,---,0.07,VWS V13.01,2013-01-09 04:44:00,
2013-01-08 23:49:00,17.2,15.5,30.50,NW,309,0.0,0.0,93,0.00,,---,0.07,VWS V13.01,2013-01-09 04:49:00,
2013-01-08 23:54:00,16.1,14.2,30.50,NW,309,0.0,0.0,92,0.00,,---,0.07,VWS V13.01,2013-01-09 04:54:00,
2013-01-08 23:59:00,15.1,13.2,30.50,NW,309,0.0,0.0,92,0.00,,---,0.07,VWS V13.01,2013-01-09 04:59:00,